createdAt,value
2023-03-06T00:00:49.770Z,25.88
2023-03-06T00:03:16.955Z,22.92
2023-03-06T00:05:44.046Z,20.90
2023-03-06T00:08:11.100Z,23.77
2023-03-06T00:10:38.311Z,19.98
2023-03-06T00:13:10.947Z,25.05
2023-03-06T00:15:37.778Z,24.30
2023-03-06T00:18:05.729Z,22.25
2023-03-06T00:20:33.931Z,24.02
2023-03-06T00:23:00.708Z,23.35
2023-03-06T00:25:27.686Z,25.48
2023-03-06T00:27:54.459Z,22.17
2023-03-06T00:30:25.416Z,25.70
2023-03-06T00:32:53.289Z,22.77
2023-03-06T00:35:20.571Z,24.50
2023-03-06T00:37:47.583Z,24.75
2023-03-06T00:40:17.121Z,25.95
2023-03-06T00:42:44.594Z,24.65
2023-03-06T00:45:13.371Z,25.75
2023-03-06T00:47:40.721Z,24.95
2023-03-06T00:50:08.595Z,23.33
2023-03-06T00:52:36.369Z,22.35
2023-03-06T00:55:03.837Z,24.65
2023-03-06T00:57:30.576Z,22.13
2023-03-06T00:59:57.537Z,23.00
2023-03-06T01:02:24.510Z,23.98
2023-03-06T01:04:54.580Z,21.90
2023-03-06T01:07:21.409Z,22.05
2023-03-06T01:09:48.176Z,23.80
2023-03-06T01:12:15.344Z,21.70
2023-03-06T01:14:42.201Z,24.10
2023-03-06T01:17:10.013Z,21.40
2023-03-06T01:19:37.076Z,24.90
2023-03-06T01:22:04.183Z,25.73
2023-03-06T01:24:31.646Z,25.20
2023-03-06T01:26:58.429Z,22.65
2023-03-06T01:29:26.587Z,21.67
2023-03-06T01:31:53.530Z,20.58
2023-03-06T01:34:20.881Z,20.83
2023-03-06T01:36:47.660Z,20.05
2023-03-06T01:39:14.460Z,22.92
2023-03-06T01:41:41.370Z,18.55
2023-03-06T01:44:11.006Z,22.75
2023-03-06T01:46:42.953Z,20.55
2023-03-06T01:49:09.658Z,21.52
2023-03-06T01:51:48.744Z,19.10
2023-03-06T01:54:21.686Z,19.00
2023-03-06T01:56:52.766Z,22.02
2023-03-06T01:59:21.898Z,19.35
2023-03-06T02:01:49.805Z,19.67
2023-03-06T02:04:17.909Z,20.23
2023-03-06T02:06:45.011Z,18.33
2023-03-06T02:09:13.650Z,18.13
2023-03-06T02:11:44.150Z,17.67
2023-03-06T02:14:14.260Z,20.10
2023-03-06T02:16:42.120Z,17.77
2023-03-06T02:19:29.463Z,16.55
2023-03-06T02:21:56.507Z,19.15
2023-03-06T02:24:44.904Z,21.20
2023-03-06T02:27:14.514Z,19.58
2023-03-06T02:32:09.722Z,19.73
2023-03-06T02:34:39.322Z,21.35
2023-03-06T02:37:11.117Z,23.73
2023-03-06T02:39:46.547Z,18.58
2023-03-06T02:42:22.138Z,21.70
2023-03-06T02:44:49.753Z,20.23
2023-03-06T02:47:16.517Z,22.10
2023-03-06T02:49:43.327Z,23.67
2023-03-06T02:52:10.403Z,22.17
2023-03-06T02:54:39.265Z,24.70
2023-03-06T02:57:06.922Z,21.85
2023-03-06T02:59:34.303Z,21.95
2023-03-06T03:02:02.410Z,22.30
2023-03-06T03:04:29.170Z,22.23
2023-03-06T03:06:56.961Z,24.25
2023-03-06T03:09:25.177Z,21.27
2023-03-06T03:11:52.228Z,21.20
2023-03-06T03:14:19.372Z,22.60
2023-03-06T03:16:47.538Z,22.63
2023-03-06T03:19:14.672Z,23.92
2023-03-06T03:21:42.662Z,24.92
2023-03-06T03:24:09.566Z,23.88
2023-03-06T03:26:36.714Z,24.60
2023-03-06T03:29:09.824Z,24.63
2023-03-06T03:31:36.835Z,24.70
2023-03-06T03:34:04.305Z,22.13
2023-03-06T03:36:34.672Z,20.83
2023-03-06T03:39:03.557Z,20.95
2023-03-06T03:41:30.618Z,25.25
2023-03-06T03:43:57.462Z,21.05
2023-03-06T03:46:24.708Z,22.50
2023-03-06T03:48:52.885Z,22.20
2023-03-06T03:51:20.073Z,23.60
2023-03-06T03:53:51.030Z,22.80
2023-03-06T03:56:21.257Z,21.17
2023-03-06T03:58:57.849Z,23.30
2023-03-06T04:01:27.875Z,21.02
2023-03-06T04:03:55.011Z,23.08
2023-03-06T04:06:21.771Z,22.02
2023-03-06T04:08:48.551Z,22.85
2023-03-06T04:11:15.912Z,21.33
2023-03-06T04:13:43.302Z,21.45
2023-03-06T04:16:10.272Z,25.42
2023-03-06T04:18:38.659Z,19.95
2023-03-06T04:21:06.377Z,18.17
2023-03-06T04:23:33.644Z,19.75
2023-03-06T04:26:00.476Z,19.15
2023-03-06T04:28:27.777Z,21.10
2023-03-06T04:30:54.569Z,20.10
2023-03-06T04:33:21.666Z,22.75
2023-03-06T04:35:48.799Z,21.30
2023-03-06T04:38:21.265Z,21.38
2023-03-06T04:40:49.774Z,18.00
2023-03-06T04:43:17.100Z,19.30
2023-03-06T04:45:44.088Z,19.90
2023-03-06T04:48:14.466Z,18.45
2023-03-06T04:50:41.851Z,21.65
2023-03-06T04:53:09.629Z,19.73
2023-03-06T04:55:36.553Z,18.92
2023-03-06T04:58:03.362Z,18.38
2023-03-06T05:00:33.388Z,20.42
2023-03-06T05:05:28.360Z,17.38
2023-03-06T05:07:55.814Z,17.98
2023-03-06T05:10:23.099Z,18.25
2023-03-06T05:12:49.838Z,18.63
2023-03-06T05:15:17.487Z,20.15
2023-03-06T05:17:44.575Z,19.83
2023-03-06T05:20:12.784Z,19.52
2023-03-06T05:22:39.670Z,18.55
2023-03-06T05:25:06.916Z,21.40
2023-03-06T05:27:33.960Z,20.60
2023-03-06T05:30:00.971Z,18.67
2023-03-06T05:32:28.476Z,17.15
2023-03-06T05:34:55.723Z,20.17
2023-03-06T05:37:25.730Z,17.10
2023-03-06T05:39:53.028Z,20.35
2023-03-06T05:42:19.917Z,17.70
2023-03-06T05:44:46.661Z,18.00
2023-03-06T05:47:13.649Z,17.00
2023-03-06T05:49:40.543Z,19.48
2023-03-06T05:52:08.917Z,18.52
2023-03-06T05:54:37.135Z,16.98
2023-03-06T05:57:05.165Z,17.13
2023-03-06T05:59:33.097Z,19.80
2023-03-06T06:02:01.409Z,19.33
2023-03-06T06:04:28.517Z,18.27
2023-03-06T06:06:58.175Z,17.38
2023-03-06T06:09:25.942Z,18.52
2023-03-06T06:11:59.946Z,19.63
2023-03-06T06:14:26.952Z,19.85
2023-03-06T06:16:53.896Z,39.17
2023-03-06T06:19:21.774Z,72.07
2023-03-06T06:21:53.986Z,75.65
2023-03-06T06:24:23.103Z,41.42
2023-03-06T06:26:51.864Z,44.17
2023-03-06T06:29:19.123Z,33.63
2023-03-06T06:31:46.198Z,21.73
2023-03-06T06:34:14.014Z,17.23
2023-03-06T06:36:41.802Z,20.83
2023-03-06T06:39:09.854Z,19.42
2023-03-06T06:41:55.221Z,19.20
2023-03-06T06:44:23.719Z,17.45
2023-03-06T06:49:38.125Z,16.30
2023-03-06T06:52:06.219Z,20.02
2023-03-06T06:54:34.426Z,17.30
2023-03-06T06:57:01.129Z,17.88
2023-03-06T06:59:27.974Z,15.85
2023-03-06T07:01:54.701Z,18.88
2023-03-06T07:04:21.727Z,16.05
2023-03-06T07:06:48.602Z,20.02
2023-03-06T07:09:15.376Z,18.08
2023-03-06T07:11:42.399Z,16.75
2023-03-06T07:14:09.176Z,16.05
2023-03-06T07:16:36.024Z,17.48
2023-03-06T07:19:02.812Z,18.85
2023-03-06T07:21:29.487Z,17.67
2023-03-06T07:23:57.589Z,17.88
2023-03-06T07:26:26.232Z,17.60
2023-03-06T07:28:53.819Z,17.45
2023-03-06T07:31:23.264Z,17.90
2023-03-06T07:33:50.858Z,17.60
2023-03-06T07:36:18.443Z,20.67
2023-03-06T07:38:45.348Z,17.10
2023-03-06T07:41:13.838Z,17.20
2023-03-06T07:43:41.731Z,17.15
2023-03-06T07:46:09.347Z,18.95
2023-03-06T07:48:37.718Z,16.38
2023-03-06T07:51:07.197Z,16.00
2023-03-06T07:53:34.961Z,17.75
2023-03-06T07:56:08.570Z,19.55
2023-03-06T07:58:36.700Z,22.13
2023-03-06T08:01:10.313Z,18.20
2023-03-06T08:03:37.676Z,20.67
2023-03-06T08:06:08.949Z,19.17
2023-03-06T08:08:37.252Z,18.38
2023-03-06T08:11:04.114Z,18.05
2023-03-06T08:13:30.994Z,17.65
2023-03-06T08:15:57.845Z,25.42
2023-03-06T08:18:24.619Z,21.45
2023-03-06T08:21:00.532Z,19.35
2023-03-06T08:23:27.264Z,16.42
2023-03-06T08:25:59.489Z,19.85
2023-03-06T08:28:26.485Z,20.77
2023-03-06T08:30:53.648Z,21.42
2023-03-06T08:33:20.688Z,21.42
2023-03-06T08:35:47.509Z,18.73
2023-03-06T08:38:14.762Z,20.83
2023-03-06T08:40:41.536Z,22.40
2023-03-06T08:43:13.995Z,21.08
2023-03-06T08:45:41.270Z,20.25
2023-03-06T08:48:08.177Z,21.70
2023-03-06T08:50:35.158Z,20.85
2023-03-06T08:53:01.946Z,20.27
2023-03-06T08:55:28.712Z,19.77
2023-03-06T08:57:55.437Z,17.55
2023-03-06T09:00:22.430Z,19.45
2023-03-06T09:02:49.281Z,18.13
2023-03-06T09:05:16.055Z,18.13
2023-03-06T09:07:42.989Z,21.88
2023-03-06T09:10:15.476Z,21.23
2023-03-06T09:12:52.488Z,18.50
2023-03-06T09:15:22.333Z,22.88
2023-03-06T09:17:49.290Z,21.17
2023-03-06T09:20:17.324Z,18.15
2023-03-06T09:22:45.598Z,17.35
2023-03-06T09:25:14.300Z,20.02
2023-03-06T09:27:41.292Z,20.05
2023-03-06T09:30:09.182Z,17.42
2023-03-06T09:32:36.036Z,20.08
2023-03-06T09:35:02.882Z,20.85
2023-03-06T09:37:29.842Z,19.95
2023-03-06T09:39:57.820Z,20.08
2023-03-06T09:42:25.183Z,18.95
2023-03-06T09:44:55.633Z,19.42
2023-03-06T09:47:38.354Z,20.73
2023-03-06T09:50:27.195Z,20.90
2023-03-06T09:53:15.192Z,18.70
2023-03-06T09:55:46.114Z,20.67
2023-03-06T09:58:30.907Z,22.02
2023-03-06T10:01:03.787Z,21.60
2023-03-06T10:03:47.484Z,35.00
2023-03-06T10:06:26.507Z,24.42
2023-03-06T10:09:01.463Z,16.92
2023-03-06T10:11:35.906Z,16.60
2023-03-06T10:14:24.651Z,16.83
2023-03-06T10:16:51.686Z,24.38
2023-03-06T10:19:20.953Z,16.70
2023-03-06T10:22:06.104Z,19.10
2023-03-06T10:25:00.372Z,24.33
2023-03-06T10:27:48.335Z,20.92
2023-03-06T10:30:33.935Z,16.40
2023-03-06T10:33:25.921Z,16.35
2023-03-06T10:35:55.961Z,18.20
2023-03-06T10:41:13.532Z,17.35
2023-03-06T10:44:03.817Z,16.25
2023-03-06T10:46:37.871Z,16.92
2023-03-06T10:49:22.722Z,14.80
2023-03-06T10:51:57.504Z,19.48
2023-03-06T10:54:24.563Z,19.60
2023-03-06T10:56:51.381Z,19.80
2023-03-06T10:59:23.033Z,21.25
2023-03-06T11:01:52.862Z,21.65
2023-03-06T11:04:31.993Z,20.10
2023-03-06T11:07:27.287Z,18.47
2023-03-06T11:09:57.119Z,18.80
2023-03-06T11:12:32.929Z,17.10
2023-03-06T11:15:23.674Z,21.30
2023-03-06T11:18:36.450Z,16.42
2023-03-06T11:21:07.436Z,19.05
2023-03-06T11:23:42.854Z,22.17
2023-03-06T11:26:15.669Z,18.63
2023-03-06T11:28:45.062Z,24.30
2023-03-06T11:31:24.104Z,17.77
2023-03-06T11:33:56.782Z,19.95
2023-03-06T11:36:40.122Z,20.30
2023-03-06T11:39:28.019Z,18.88
2023-03-06T11:42:13.410Z,17.73
2023-03-06T11:45:03.063Z,22.38
2023-03-06T11:47:36.629Z,20.85
2023-03-06T11:50:35.736Z,20.98
2023-03-06T11:53:05.653Z,18.63
2023-03-06T11:55:50.991Z,18.05
2023-03-06T11:58:23.922Z,25.90
2023-03-06T12:01:09.373Z,23.95
2023-03-06T12:04:03.975Z,19.98
2023-03-06T12:06:51.132Z,22.85
2023-03-06T12:09:55.507Z,19.60
2023-03-06T12:12:34.111Z,19.83
2023-03-06T12:15:22.649Z,20.20
2023-03-06T12:18:13.279Z,20.23
2023-03-06T12:21:07.245Z,22.98
2023-03-06T12:23:43.010Z,22.98
2023-03-06T12:26:15.909Z,20.92
2023-03-06T12:28:50.353Z,21.33
2023-03-06T12:31:33.998Z,21.20
2023-03-06T12:34:07.925Z,31.35
2023-03-06T12:37:00.767Z,26.33
2023-03-06T12:40:06.977Z,35.55
2023-03-06T12:42:59.353Z,22.98
2023-03-06T12:45:37.113Z,22.15
2023-03-06T12:48:14.985Z,18.10
2023-03-06T12:50:44.572Z,21.23
2023-03-06T12:53:22.766Z,20.20
2023-03-06T12:55:51.361Z,22.70
2023-03-06T12:58:57.255Z,29.17
2023-03-06T13:02:12.044Z,22.08
2023-03-06T13:04:45.607Z,19.15
2023-03-06T13:07:15.421Z,20.00
2023-03-06T13:10:05.749Z,21.60
2023-03-06T13:12:55.811Z,22.13
2023-03-06T13:17:56.928Z,27.05
2023-03-06T13:20:30.071Z,22.08
2023-03-06T13:22:57.261Z,23.13
2023-03-06T13:25:23.929Z,21.17
2023-03-06T13:28:03.350Z,22.55
2023-03-06T13:30:39.917Z,19.30
2023-03-06T13:33:30.104Z,21.50
2023-03-06T13:35:58.284Z,22.55
2023-03-06T13:38:53.112Z,20.73
2023-03-06T13:41:22.990Z,19.48
2023-03-06T13:43:55.671Z,19.75
2023-03-06T13:46:27.897Z,20.02
2023-03-06T13:49:13.106Z,18.92
2023-03-06T13:52:18.292Z,17.80
2023-03-06T13:54:54.032Z,19.20
2023-03-06T13:57:54.500Z,16.38
2023-03-06T14:00:59.157Z,19.02
2023-03-06T14:03:51.293Z,20.48
2023-03-06T14:06:37.330Z,18.83
2023-03-06T14:09:08.315Z,17.35
2023-03-06T14:11:36.383Z,17.80
2023-03-06T14:14:03.842Z,17.85
2023-03-06T14:16:49.495Z,19.25
2023-03-06T14:19:19.246Z,15.57
2023-03-06T14:21:51.205Z,17.67
2023-03-06T14:24:20.163Z,17.58
2023-03-06T14:26:51.385Z,19.95
2023-03-06T14:29:23.400Z,18.35
2023-03-06T14:31:52.965Z,15.85
2023-03-06T14:34:26.898Z,18.70
2023-03-06T14:36:55.965Z,17.15
2023-03-06T14:39:41.823Z,15.80
2023-03-06T14:42:15.507Z,16.98
2023-03-06T14:44:42.858Z,16.92
2023-03-06T14:47:28.794Z,22.00
2023-03-06T14:50:33.617Z,18.63
2023-03-06T14:53:25.457Z,24.70
2023-03-06T14:55:58.012Z,26.50
2023-03-06T14:58:38.869Z,21.95
2023-03-06T15:01:08.997Z,19.00
2023-03-06T15:03:44.447Z,19.02
2023-03-06T15:06:20.097Z,19.70
2023-03-06T15:08:52.953Z,26.08
2023-03-06T15:11:19.763Z,24.17
2023-03-06T15:14:00.799Z,23.40
2023-03-06T15:16:30.171Z,18.58
2023-03-06T15:19:00.573Z,17.05
2023-03-06T15:21:36.303Z,21.15
2023-03-06T15:24:31.648Z,20.95
2023-03-06T15:27:03.492Z,18.10
2023-03-06T15:29:30.657Z,22.55
2023-03-06T15:32:33.574Z,18.25
2023-03-06T15:35:25.547Z,19.30
2023-03-06T15:37:53.057Z,17.73
2023-03-06T15:40:22.347Z,17.45
2023-03-06T15:42:52.358Z,17.98
2023-03-06T15:47:49.199Z,19.20
2023-03-06T15:50:21.372Z,19.38
2023-03-06T15:52:49.359Z,18.60
2023-03-06T15:55:18.395Z,16.95
2023-03-06T15:57:51.726Z,20.43
2023-03-06T16:00:28.691Z,16.30
2023-03-06T16:02:58.951Z,18.38
2023-03-06T16:05:27.481Z,17.20
2023-03-06T16:07:55.136Z,18.98
2023-03-06T16:10:24.302Z,20.52
2023-03-06T16:12:54.537Z,17.00
2023-03-06T16:15:25.384Z,22.63
2023-03-06T16:17:52.300Z,24.67
2023-03-06T16:20:21.555Z,26.60
2023-03-06T16:22:53.837Z,26.45
2023-03-06T16:25:22.686Z,26.38
2023-03-06T16:27:58.120Z,24.52
2023-03-06T16:30:35.540Z,24.48
2023-03-06T16:33:03.537Z,20.35
2023-03-06T16:35:30.463Z,26.65
2023-03-06T16:37:58.685Z,20.92
2023-03-06T16:40:32.607Z,21.83
2023-03-06T16:42:59.639Z,22.85
2023-03-06T16:45:26.583Z,29.02
2023-03-06T16:47:54.377Z,33.80
2023-03-06T16:50:30.156Z,25.92
2023-03-06T16:52:58.275Z,27.70
2023-03-06T16:55:26.892Z,23.55
2023-03-06T16:57:54.776Z,26.45
2023-03-06T17:00:24.623Z,25.73
2023-03-06T17:02:52.373Z,28.00
2023-03-06T17:05:19.968Z,24.77
2023-03-06T17:07:47.543Z,30.10
2023-03-06T17:10:16.263Z,66.88
2023-03-06T17:12:43.699Z,73.15
2023-03-06T17:15:11.642Z,58.20
2023-03-06T17:17:38.478Z,36.58
2023-03-06T17:20:11.877Z,26.80
2023-03-06T17:22:39.428Z,23.98
2023-03-06T17:25:07.636Z,27.85
2023-03-06T17:27:35.477Z,26.17
2023-03-06T17:30:02.659Z,27.58
2023-03-06T17:32:29.482Z,30.50
2023-03-06T17:34:56.638Z,27.77
2023-03-06T17:37:23.464Z,27.45
2023-03-06T17:39:50.203Z,30.27
2023-03-06T17:42:17.215Z,24.23
2023-03-06T17:44:43.948Z,31.17
2023-03-06T17:47:10.879Z,25.88
2023-03-06T17:49:37.804Z,27.35
2023-03-06T17:52:05.752Z,28.95
2023-03-06T17:54:33.379Z,32.58
2023-03-06T17:57:03.421Z,29.42
2023-03-06T17:59:33.966Z,31.50
2023-03-06T18:02:01.884Z,32.13
2023-03-06T18:04:29.082Z,29.48
2023-03-06T18:06:57.126Z,31.40
2023-03-06T18:09:24.884Z,38.38
2023-03-06T18:11:51.696Z,34.55
2023-03-06T18:14:18.491Z,32.63
2023-03-06T18:16:45.376Z,34.70
2023-03-06T18:19:12.260Z,34.53
2023-03-06T18:21:40.110Z,36.40
2023-03-06T18:24:07.464Z,38.33
2023-03-06T18:26:34.198Z,37.88
2023-03-06T18:29:04.464Z,39.00
2023-03-06T18:31:40.222Z,37.17
2023-03-06T18:34:10.289Z,38.58
2023-03-06T18:39:08.703Z,35.05
2023-03-06T18:41:36.229Z,32.90
2023-03-06T18:44:03.121Z,37.58
2023-03-06T18:46:32.541Z,31.73
2023-03-06T18:48:59.858Z,35.05
2023-03-06T18:51:27.463Z,39.03
2023-03-06T18:53:57.581Z,38.28
2023-03-06T18:56:24.838Z,33.55
2023-03-06T18:58:52.117Z,42.08
2023-03-06T19:01:19.090Z,34.42
2023-03-06T19:03:46.376Z,38.55
2023-03-06T19:06:14.889Z,37.65
2023-03-06T19:08:41.916Z,37.60
2023-03-06T19:11:11.854Z,35.70
2023-03-06T19:13:39.111Z,38.55
2023-03-06T19:16:06.691Z,35.22
2023-03-06T19:18:34.058Z,37.63
2023-03-06T19:21:14.348Z,35.35
2023-03-06T19:23:41.830Z,37.72
2023-03-06T19:26:09.480Z,36.90
2023-03-06T19:28:38.488Z,36.95
2023-03-06T19:31:19.618Z,34.63
2023-03-06T19:33:48.305Z,40.38
2023-03-06T19:36:16.910Z,37.75
2023-03-06T19:38:43.731Z,40.40
2023-03-06T19:41:13.487Z,38.60
2023-03-06T19:43:41.796Z,37.10
2023-03-06T19:46:15.119Z,36.95
2023-03-06T19:48:42.654Z,38.50
2023-03-06T19:51:10.503Z,34.92
2023-03-06T19:53:37.848Z,38.75
2023-03-06T19:56:06.912Z,37.08
2023-03-06T19:58:33.983Z,39.47
2023-03-06T20:01:10.376Z,37.40
2023-03-06T20:03:37.222Z,45.13
2023-03-06T20:06:08.930Z,38.25
2023-03-06T20:08:36.507Z,43.08
2023-03-06T20:11:04.116Z,30.83
2023-03-06T20:13:31.586Z,43.28
2023-03-06T20:16:02.914Z,30.75
2023-03-06T20:18:29.719Z,32.45
2023-03-06T20:21:04.621Z,32.33
2023-03-06T20:23:32.094Z,32.75
2023-03-06T20:26:09.548Z,34.90
2023-03-06T20:28:39.111Z,34.17
2023-03-06T20:31:11.217Z,32.05
2023-03-06T20:33:38.120Z,29.67
2023-03-06T20:36:11.585Z,30.00
2023-03-06T20:38:39.092Z,36.28
2023-03-06T20:41:05.759Z,32.33
2023-03-06T20:43:32.492Z,32.40
2023-03-06T20:46:02.566Z,30.27
2023-03-06T20:48:29.756Z,31.05
2023-03-06T20:51:21.022Z,33.80
2023-03-06T20:53:49.233Z,30.83
2023-03-06T20:56:19.336Z,34.83
2023-03-06T20:58:46.215Z,32.92
2023-03-06T21:01:20.946Z,33.00
2023-03-06T21:03:48.464Z,32.63
2023-03-06T21:06:15.800Z,31.05
2023-03-06T21:08:43.370Z,31.95
2023-03-06T21:11:10.132Z,33.22
2023-03-06T21:13:37.032Z,29.38
2023-03-06T21:16:09.821Z,31.48
2023-03-06T21:18:36.939Z,33.85
2023-03-06T21:21:09.154Z,32.95
2023-03-06T21:23:36.829Z,30.85
2023-03-06T21:26:03.822Z,32.08
2023-03-06T21:28:30.954Z,32.60
2023-03-06T21:31:00.682Z,34.25
2023-03-06T21:33:27.839Z,34.47
2023-03-06T21:35:54.789Z,31.33
2023-03-06T21:38:21.590Z,35.25
2023-03-06T21:40:48.322Z,31.40
2023-03-06T21:43:17.467Z,34.47
2023-03-06T21:45:48.655Z,30.97
2023-03-06T21:48:15.877Z,33.35
2023-03-06T21:50:42.619Z,30.17
2023-03-06T21:53:09.761Z,32.00
2023-03-06T21:55:40.897Z,31.27
2023-03-06T21:58:07.686Z,27.50
2023-03-06T22:00:36.489Z,27.67
2023-03-06T22:03:04.871Z,29.70
2023-03-06T22:05:32.085Z,28.83
2023-03-06T22:07:59.269Z,27.77
2023-03-06T22:10:26.038Z,27.45
2023-03-06T22:12:52.825Z,26.77
2023-03-06T22:15:21.847Z,27.02
2023-03-06T22:17:48.873Z,30.37
2023-03-06T22:20:16.039Z,24.25
2023-03-06T22:22:43.709Z,28.60
2023-03-06T22:25:11.898Z,26.73
2023-03-06T22:27:39.012Z,27.50
2023-03-06T22:30:06.359Z,30.23
2023-03-06T22:32:33.373Z,27.50
2023-03-06T22:35:00.156Z,28.05
2023-03-06T22:37:26.869Z,27.45
2023-03-06T22:39:53.618Z,28.42
2023-03-06T22:42:20.359Z,28.02
2023-03-06T22:44:47.206Z,30.25
2023-03-06T22:47:14.033Z,30.35
2023-03-06T22:49:40.774Z,29.33
2023-03-06T22:52:07.466Z,34.15
2023-03-06T22:54:34.362Z,32.80
2023-03-06T22:57:01.090Z,30.73
2023-03-06T22:59:27.835Z,31.17
2023-03-06T23:01:54.582Z,29.98
2023-03-06T23:04:21.382Z,32.30
2023-03-06T23:06:48.244Z,30.80
2023-03-06T23:09:23.395Z,34.63
2023-03-06T23:12:11.556Z,30.23
2023-03-06T23:14:57.064Z,28.77
2023-03-06T23:17:42.311Z,33.00
2023-03-06T23:20:28.437Z,30.00
2023-03-06T23:23:13.965Z,32.30
2023-03-06T23:25:40.730Z,33.58
2023-03-06T23:28:07.702Z,31.23
2023-03-06T23:30:34.813Z,30.73
2023-03-06T23:33:01.515Z,35.35
2023-03-06T23:35:28.391Z,35.72
2023-03-06T23:37:55.310Z,30.30
2023-03-06T23:40:22.340Z,30.70
2023-03-06T23:42:49.401Z,35.22
2023-03-06T23:45:16.760Z,34.35
2023-03-06T23:47:43.521Z,31.23
2023-03-06T23:50:13.502Z,31.83
2023-03-06T23:52:40.693Z,34.42
2023-03-06T23:55:07.843Z,33.13
2023-03-06T23:57:34.796Z,36.22
